الصفحة الرئيسية
METAR-TAF:

METAR-TAF

مطار :

Tongatapu, تونجا

دائرة عرض: 21-14S, خط طول: 175-09W, ارتفاع: 38 متر

مراقبة الطقس الحالي

تاريخ ووقت الإصدار 48 دقيقة قبل الساعة 15:00UTC
ريح 4 عقدة من الجنوب الشرقي
درجة الحرارة 24°درجة مئوية
الرطوبة 94%
ضغط 1008 hPa
الرؤية 10 كم أو أكثر
غيوم قليلة على ارتفاع 1600 قدم

METAR: NFTF 231500Z 14004KT 9999 FEW016 24/23 Q1008

زمن: 04:48 (15:48 UTC)

توقعات

تاريخ ووقت الإصدار 4ساعات و 41 دقيقة قبل الساعة 11:07UTC
التوقعات صالحة من23 الساعة 12 UTC إلى 24 الساعة 12 UTC
ريح 10 عقدة من الجنوب الشرقي
الرؤية 10 كم أو أكثر
غيوم قليلة على ارتفاع 1600 قدم

TAF: NFTF 231107Z 2312/2412 14010KT 9999 FEW016

أرصاد الطقس والتوقعات من أكثر من 4000 مطار (تقارير الطقس للمطار METAR والتنبؤ بالطقس بالمطارTAF).

المحطات المتاحة هي النقط الصفراء والحمراء على الخريطة.

حرك المؤشر فوق النقطة لمعرفة اسم المحطة.

ثم انقر لمعرفة أرصاد وتوقعات الطقس.

لتغيير الخارطة: اضغط على الأزرار الخضراء مع رمز الصليب الأسود للتكبير. على الزر الأخضر مع شرطة للتصغير، أو على الأسهم الخضراء للخرائط المجاورة.


METAR-TAF: